Time;durP1;ratioP1;P1;durP2;ratioP2;P2;SDS_P1;SDS_P2;PMS_P1;PMS_P2;Temp;Humidity;BMP_temperature;BMP_pressure;BME280_temperature;BME280_humidity;BME280_pressure;Samples;Min_cycle;Max_cycle;Signal;HPM_P1;HPM_P2
2023/01/29 00:01:17;;;;;;;;;;;19.00;51.20;;;;;;7637909;23;19916;-67
2023/01/29 00:04:18;;;;;;;;;;;19.00;51.30;;;;;;7638061;23;20272;-67
2023/01/29 00:07:18;;;;;;;;;;;19.00;51.30;;;;;;7637494;23;20301;-67
2023/01/29 00:10:19;;;;;;;;;;;19.00;51.30;;;;;;7636526;23;19908;-68
2023/01/29 00:13:19;;;;;;;;;;;19.00;51.30;;;;;;7637966;23;19920;-67
2023/01/29 00:16:20;;;;;;;;;;;19.00;52.00;;;;;;7637760;23;19911;-67
2023/01/29 00:19:20;;;;;;;;;;;19.00;51.20;;;;;;7638007;23;19905;-67
2023/01/29 00:22:22;;;;;;;;;;;19.00;51.30;;;;;;7637618;23;20252;-67
2023/01/29 00:25:22;;;;;;;;;;;19.00;51.30;;;;;;7637835;23;19908;-67
2023/01/29 00:28:23;;;;;;;;;;;19.00;51.30;;;;;;7636110;23;19956;-68
2023/01/29 00:31:24;;;;;;;;;;;19.00;51.20;;;;;;7635792;23;19924;-68
2023/01/29 00:34:25;;;;;;;;;;;19.00;51.30;;;;;;7637836;23;19905;-67
2023/01/29 00:37:25;;;;;;;;;;;19.00;51.20;;;;;;7637842;23;19959;-67
2023/01/29 00:40:26;;;;;;;;;;;19.00;51.20;;;;;;7635840;23;19909;-67
2023/01/29 00:46:46;;;;;;;;;;;19.00;51.20;;;;;;7637545;23;19913;-67
2023/01/29 00:49:46;;;;;;;;;;;19.00;51.30;;;;;;7637890;23;19993;-68
2023/01/29 00:52:48;;;;;;;;;;;19.00;51.20;;;;;;7637272;23;19905;-68
2023/01/29 00:55:50;;;;;;;;;;;19.00;51.20;;;;;;7637283;23;19916;-67
2023/01/29 00:58:50;;;;;;;;;;;19.00;51.30;;;;;;7635757;23;20031;-68
2023/01/29 01:05:16;;;;;;;;;;;19.00;51.30;;;;;;7637344;23;19904;-68
2023/01/29 01:11:36;;;;;;;;;;;19.00;51.30;;;;;;7637640;23;19932;-67
2023/01/29 01:14:36;;;;;;;;;;;19.00;51.30;;;;;;7637107;23;20000;-67
2023/01/29 01:17:37;;;;;;;;;;;19.00;51.20;;;;;;7637567;23;19912;-67
2023/01/29 01:20:38;;;;;;;;;;;19.00;51.20;;;;;;7637228;23;19938;-68
2023/01/29 01:23:39;;;;;;;;;;;19.00;51.20;;;;;;7636075;23;19905;-67
2023/01/29 01:26:40;;;;;;;;;;;19.00;51.30;;;;;;7637550;23;19919;-67
2023/01/29 01:29:40;;;;;;;;;;;19.00;51.20;;;;;;7637429;23;20295;-67
2023/01/29 01:32:41;;;;;;;;;;;19.00;51.20;;;;;;7637352;23;19928;-68
2023/01/29 01:35:42;;;;;;;;;;;19.00;51.30;;;;;;7635269;23;19904;-69
2023/01/29 01:38:45;;;;;;;;;;;19.00;51.30;;;;;;7636979;23;20564;-69
2023/01/29 01:41:46;;;;;;;;;;;19.00;51.30;;;;;;7636393;23;19913;-69
2023/01/29 01:44:50;;;;;;;;;;;19.00;51.20;;;;;;7637299;23;19923;-69
2023/01/29 01:47:53;;;;;;;;;;;19.00;51.30;;;;;;7634637;23;19915;-69
2023/01/29 01:51:03;;;;;;;;;;;19.00;51.30;;;;;;7636590;23;19912;-69
2023/01/29 01:54:09;;;;;;;;;;;19.00;51.30;;;;;;7634125;23;20382;-69
2023/01/29 01:57:14;;;;;;;;;;;19.00;51.30;;;;;;7634939;23;19909;-69
2023/01/29 02:00:16;;;;;;;;;;;19.00;51.30;;;;;;7636291;23;19909;-69
2023/01/29 02:10:14;;;;;;;;;;;19.00;51.30;;;;;;7637025;23;20408;-68
2023/01/29 02:13:17;;;;;;;;;;;19.00;51.30;;;;;;7636786;23;19905;-69
2023/01/29 02:16:19;;;;;;;;;;;19.00;51.30;;;;;;7638921;23;19909;-69
2023/01/29 02:19:28;;;;;;;;;;;19.00;51.30;;;;;;7638608;23;19963;-69
2023/01/29 02:22:52;;;;;;;;;;;19.00;51.30;;;;;;7638345;23;20308;-69
2023/01/29 02:26:02;;;;;;;;;;;19.00;51.30;;;;;;7638574;23;19932;-69
2023/01/29 02:29:26;;;;;;;;;;;19.00;51.30;;;;;;7638041;23;19999;-69
2023/01/29 02:32:26;;;;;;;;;;;19.00;51.50;;;;;;7638584;23;19927;-69
2023/01/29 02:35:48;;;;;;;;;;;19.00;51.20;;;;;;7638099;23;19943;-69
2023/01/29 02:38:59;;;;;;;;;;;19.00;51.20;;;;;;7638506;23;19909;-69
2023/01/29 02:42:10;;;;;;;;;;;19.00;51.20;;;;;;7638199;23;19919;-69
2023/01/29 02:45:13;;;;;;;;;;;19.00;51.20;;;;;;7637900;23;20328;-68
2023/01/29 02:48:18;;;;;;;;;;;19.00;51.20;;;;;;7637919;23;19904;-69
2023/01/29 02:51:25;;;;;;;;;;;19.00;51.20;;;;;;7637991;23;20391;-69
2023/01/29 02:54:32;;;;;;;;;;;19.00;51.20;;;;;;7636357;23;19916;-69
2023/01/29 02:57:35;;;;;;;;;;;19.00;51.20;;;;;;7637678;23;19909;-69
2023/01/29 03:00:38;;;;;;;;;;;19.00;51.20;;;;;;7637894;23;20400;-69
2023/01/29 03:03:40;;;;;;;;;;;19.00;51.20;;;;;;7638180;23;19932;-69
2023/01/29 03:06:44;;;;;;;;;;;19.00;51.20;;;;;;7637860;23;19905;-68
2023/01/29 03:09:49;;;;;;;;;;;19.00;51.20;;;;;;7635649;23;19904;-69
2023/01/29 03:12:54;;;;;;;;;;;19.00;51.20;;;;;;7636290;23;19912;-68
2023/01/29 03:16:01;;;;;;;;;;;19.00;51.20;;;;;;7637633;23;19908;-69
2023/01/29 03:19:06;;;;;;;;;;;19.00;51.20;;;;;;7637976;23;19916;-69
2023/01/29 03:22:08;;;;;;;;;;;19.00;51.20;;;;;;7635503;23;19913;-69
2023/01/29 03:32:07;;;;;;;;;;;19.00;51.20;;;;;;7637701;23;19920;-69
2023/01/29 03:35:09;;;;;;;;;;;19.00;51.30;;;;;;7637717;23;19935;-68
2023/01/29 03:38:10;;;;;;;;;;;19.00;51.30;;;;;;7637069;23;19909;-69
2023/01/29 03:41:18;;;;;;;;;;;19.00;51.20;;;;;;7637580;23;20248;-69
2023/01/29 03:44:39;;;;;;;;;;;19.00;51.20;;;;;;7637333;23;19915;-69
2023/01/29 03:47:49;;;;;;;;;;;19.00;51.20;;;;;;7637007;23;19940;-69
2023/01/29 03:50:52;;;;;;;;;;;19.00;51.20;;;;;;7637223;23;19918;-69
2023/01/29 03:54:29;;;;;;;;;;;19.00;51.20;;;;;;7637420;23;19927;-69
2023/01/29 03:57:48;;;;;;;;;;;19.00;51.20;;;;;;7561809;23;20044;-69
2023/01/29 04:00:54;;;;;;;;;;;19.00;51.90;;;;;;7637467;23;20418;-68
2023/01/29 04:03:57;;;;;;;;;;;19.00;51.20;;;;;;7637921;23;19907;-69
2023/01/29 04:07:05;;;;;;;;;;;19.00;51.20;;;;;;7637347;23;19909;-69
2023/01/29 04:10:08;;;;;;;;;;;19.00;51.20;;;;;;7635559;23;19912;-69
2023/01/29 04:13:10;;;;;;;;;;;19.00;51.20;;;;;;7637579;23;19904;-69
2023/01/29 04:16:15;;;;;;;;;;;19.00;51.20;;;;;;7637606;23;19904;-68
2023/01/29 04:19:16;;;;;;;;;;;19.00;51.20;;;;;;7636677;23;20347;-68
2023/01/29 04:22:25;;;;;;;;;;;19.00;51.20;;;;;;7635195;23;19909;-69
2023/01/29 04:25:30;;;;;;;;;;;19.00;51.20;;;;;;7636947;23;19982;-69
2023/01/29 04:28:50;;;;;;;;;;;19.00;51.10;;;;;;7636814;23;19955;-69
2023/01/29 04:31:53;;;;;;;;;;;19.00;51.10;;;;;;7635296;23;19932;-69
2023/01/29 04:35:07;;;;;;;;;;;19.00;51.10;;;;;;7636896;23;19905;-69
2023/01/29 04:38:19;;;;;;;;;;;19.00;51.10;;;;;;7634904;23;19904;-69
2023/01/29 04:41:23;;;;;;;;;;;19.00;51.10;;;;;;7636651;23;19916;-69
2023/01/29 04:44:43;;;;;;;;;;;19.00;51.10;;;;;;7635099;23;19964;-69
2023/01/29 04:47:52;;;;;;;;;;;19.00;51.20;;;;;;7636719;23;20325;-69
2023/01/29 04:50:52;;;;;;;;;;;19.00;51.10;;;;;;7636564;23;20291;-69
2023/01/29 04:53:59;;;;;;;;;;;19.00;51.10;;;;;;7635066;23;19916;-69
2023/01/29 04:57:00;;;;;;;;;;;19.00;51.10;;;;;;7636650;23;19912;-69
2023/01/29 05:03:41;;;;;;;;;;;19.00;51.20;;;;;;7636448;23;19995;-69
2023/01/29 05:06:42;;;;;;;;;;;19.00;51.20;;;;;;7636889;23;19912;-69
2023/01/29 05:09:44;;;;;;;;;;;19.00;51.20;;;;;;7636201;23;19975;-69
2023/01/29 05:12:47;;;;;;;;;;;19.00;51.20;;;;;;7635069;23;19905;-69
2023/01/29 05:16:03;;;;;;;;;;;19.00;51.20;;;;;;7636698;23;20344;-69
2023/01/29 05:19:04;;;;;;;;;;;19.00;51.20;;;;;;7635980;23;20249;-69
2023/01/29 05:22:05;;;;;;;;;;;19.00;51.20;;;;;;7636409;23;19912;-68
2023/01/29 05:25:19;;;;;;;;;;;19.00;51.20;;;;;;7637478;23;19916;-67
2023/01/29 05:28:20;;;;;;;;;;;19.00;51.20;;;;;;7637317;23;19974;-67
2023/01/29 05:31:20;;;;;;;;;;;19.00;51.20;;;;;;7636922;23;19916;-67
2023/01/29 05:34:21;;;;;;;;;;;19.00;51.20;;;;;;7637358;23;19905;-67
2023/01/29 05:37:22;;;;;;;;;;;19.00;51.20;;;;;;7635440;23;20240;-67
2023/01/29 05:40:23;;;;;;;;;;;19.00;51.20;;;;;;7637211;23;19905;-68
2023/01/29 05:43:24;;;;;;;;;;;19.00;51.20;;;;;;7637277;23;19912;-68
2023/01/29 05:46:24;;;;;;;;;;;19.00;51.20;;;;;;7638665;23;19905;-67
2023/01/29 05:49:25;;;;;;;;;;;19.00;51.90;;;;;;7639673;23;19909;-68
2023/01/29 05:52:25;;;;;;;;;;;19.00;51.20;;;;;;7639822;23;19947;-67
2023/01/29 05:55:28;;;;;;;;;;;19.00;51.20;;;;;;7639675;23;19909;-67
2023/01/29 05:58:32;;;;;;;;;;;19.00;51.20;;;;;;7639547;23;20391;-67
2023/01/29 06:01:32;;;;;;;;;;;19.00;51.20;;;;;;7639142;23;19912;-67
2023/01/29 06:04:33;;;;;;;;;;;19.00;51.20;;;;;;7639975;23;19904;-67
2023/01/29 06:07:34;;;;;;;;;;;19.00;51.20;;;;;;7639768;23;20336;-67
2023/01/29 06:10:35;;;;;;;;;;;19.00;51.20;;;;;;7639458;23;19909;-67
2023/01/29 06:13:36;;;;;;;;;;;19.00;51.20;;;;;;7639685;23;19912;-67
2023/01/29 06:16:36;;;;;;;;;;;19.00;51.20;;;;;;7639083;23;20489;-68
2023/01/29 06:19:37;;;;;;;;;;;19.00;51.20;;;;;;7639443;23;19975;-67
2023/01/29 06:22:37;;;;;;;;;;;19.00;51.20;;;;;;7638787;23;19913;-67
2023/01/29 06:25:38;;;;;;;;;;;19.00;51.20;;;;;;7637835;23;19905;-67
2023/01/29 06:28:39;;;;;;;;;;;19.00;51.30;;;;;;7639585;23;19908;-67
2023/01/29 06:31:39;;;;;;;;;;;19.00;51.20;;;;;;7637284;23;19983;-67
2023/01/29 06:34:42;;;;;;;;;;;19.00;51.20;;;;;;7638146;23;21308;-67
2023/01/29 06:37:43;;;;;;;;;;;19.00;51.20;;;;;;7639205;23;19908;-68
2023/01/29 06:40:43;;;;;;;;;;;19.00;51.20;;;;;;7637495;23;19909;-67
2023/01/29 06:43:44;;;;;;;;;;;19.00;51.30;;;;;;7639040;23;19940;-67
2023/01/29 06:46:45;;;;;;;;;;;19.00;51.20;;;;;;7638945;23;19909;-67
2023/01/29 06:49:45;;;;;;;;;;;19.00;51.20;;;;;;7638846;23;19916;-67
2023/01/29 06:52:46;;;;;;;;;;;19.00;51.20;;;;;;7636844;23;19909;-67
2023/01/29 06:55:50;;;;;;;;;;;19.00;51.30;;;;;;7637019;23;19908;-67
2023/01/29 06:58:51;;;;;;;;;;;19.00;51.20;;;;;;7636993;23;19908;-67
2023/01/29 07:01:51;;;;;;;;;;;19.00;51.20;;;;;;7638667;23;19983;-67
2023/01/29 07:04:52;;;;;;;;;;;19.00;51.20;;;;;;7638663;23;19904;-67
2023/01/29 07:07:53;;;;;;;;;;;19.00;51.20;;;;;;7638689;23;19904;-67
2023/01/29 07:10:59;;;;;;;;;;;19.00;51.20;;;;;;7638485;23;19908;-67
2023/01/29 07:14:00;;;;;;;;;;;19.00;51.20;;;;;;7638660;23;19909;-67
2023/01/29 07:17:01;;;;;;;;;;;19.00;51.30;;;;;;7637977;23;19912;-67
2023/01/29 07:20:01;;;;;;;;;;;19.00;51.90;;;;;;7639359;23;19980;-67
2023/01/29 07:23:02;;;;;;;;;;;19.00;51.20;;;;;;7638665;23;19917;-67
2023/01/29 07:26:03;;;;;;;;;;;19.00;51.20;;;;;;7638954;23;20026;-67
2023/01/29 07:29:03;;;;;;;;;;;19.00;51.20;;;;;;7638625;23;19911;-67
2023/01/29 07:32:04;;;;;;;;;;;19.00;51.20;;;;;;7638799;23;19917;-67
2023/01/29 07:35:05;;;;;;;;;;;19.00;51.20;;;;;;7638497;23;19916;-68
2023/01/29 07:38:06;;;;;;;;;;;19.00;51.20;;;;;;7638402;23;19911;-67
2023/01/29 07:41:08;;;;;;;;;;;19.00;51.30;;;;;;7638245;23;19941;-67
2023/01/29 07:44:08;;;;;;;;;;;19.00;51.20;;;;;;7636345;23;19940;-67
2023/01/29 07:47:09;;;;;;;;;;;19.00;51.30;;;;;;7638146;23;20027;-67
2023/01/29 07:50:10;;;;;;;;;;;19.00;51.20;;;;;;7638329;23;19909;-67
2023/01/29 07:53:13;;;;;;;;;;;19.00;51.20;;;;;;7636641;23;19909;-68
2023/01/29 07:56:14;;;;;;;;;;;19.00;51.20;;;;;;7636579;23;19905;-68
2023/01/29 07:59:15;;;;;;;;;;;19.00;51.30;;;;;;7638330;23;19911;-67
2023/01/29 08:02:15;;;;;;;;;;;19.00;51.20;;;;;;7636747;23;19908;-67
2023/01/29 08:05:16;;;;;;;;;;;19.00;51.20;;;;;;7638249;23;19979;-67
2023/01/29 08:08:18;;;;;;;;;;;19.00;51.30;;;;;;7637868;23;20212;-67
2023/01/29 08:11:18;;;;;;;;;;;19.00;51.30;;;;;;7638317;23;19906;-67
2023/01/29 08:14:19;;;;;;;;;;;19.00;51.30;;;;;;7637754;23;19955;-67
2023/01/29 08:17:19;;;;;;;;;;;19.00;51.30;;;;;;7637401;23;19936;-67
2023/01/29 08:20:20;;;;;;;;;;;19.00;51.30;;;;;;7637942;23;20306;-67
2023/01/29 08:23:21;;;;;;;;;;;19.00;51.20;;;;;;7637756;23;19915;-67
2023/01/29 08:26:22;;;;;;;;;;;19.00;51.20;;;;;;7637362;23;19909;-67
2023/01/29 08:29:22;;;;;;;;;;;19.00;51.30;;;;;;7637699;23;19911;-68
2023/01/29 08:32:23;;;;;;;;;;;19.00;51.20;;;;;;7637755;23;20237;-68
2023/01/29 08:35:24;;;;;;;;;;;19.00;51.20;;;;;;7636235;23;19909;-67
2023/01/29 08:38:25;;;;;;;;;;;19.00;51.90;;;;;;7637830;23;19963;-67
2023/01/29 08:41:26;;;;;;;;;;;19.00;51.30;;;;;;7635877;23;19964;-68
2023/01/29 08:44:26;;;;;;;;;;;19.00;51.20;;;;;;7637274;23;19909;-67
2023/01/29 08:47:27;;;;;;;;;;;19.00;51.20;;;;;;7637324;23;20556;-67
2023/01/29 08:50:29;;;;;;;;;;;19.00;51.20;;;;;;7637329;23;19911;-67
2023/01/29 08:53:30;;;;;;;;;;;19.00;51.20;;;;;;7637597;23;20386;-67
2023/01/29 08:56:31;;;;;;;;;;;19.00;51.30;;;;;;7635904;23;19908;-68
2023/01/29 08:59:31;;;;;;;;;;;19.00;51.30;;;;;;7637479;23;19988;-67
2023/01/29 09:02:32;;;;;;;;;;;19.00;51.20;;;;;;7636260;23;19908;-67
2023/01/29 09:05:36;;;;;;;;;;;19.00;51.20;;;;;;7635964;23;20383;-68
2023/01/29 09:08:37;;;;;;;;;;;19.00;51.30;;;;;;7637136;23;19904;-68
2023/01/29 09:11:39;;;;;;;;;;;19.00;51.30;;;;;;7635926;23;19904;-67
2023/01/29 09:14:40;;;;;;;;;;;19.00;51.30;;;;;;7637382;23;20372;-67
2023/01/29 09:17:40;;;;;;;;;;;19.00;51.30;;;;;;7635408;23;19905;-67
2023/01/29 09:20:41;;;;;;;;;;;19.00;51.30;;;;;;7636775;23;19959;-67
2023/01/29 09:23:41;;;;;;;;;;;19.00;51.30;;;;;;7637389;23;20277;-67
2023/01/29 09:26:42;;;;;;;;;;;19.00;51.20;;;;;;7637084;23;20277;-67
2023/01/29 09:29:42;;;;;;;;;;;19.00;51.30;;;;;;7635635;23;19916;-68
2023/01/29 09:32:43;;;;;;;;;;;19.00;51.30;;;;;;7635060;23;19941;-67
2023/01/29 09:35:47;;;;;;;;;;;19.00;51.30;;;;;;7635508;23;19928;-67
2023/01/29 09:38:47;;;;;;;;;;;19.00;51.30;;;;;;7636948;23;19905;-67
2023/01/29 09:42:00;;;;;;;;;;;19.00;51.30;;;;;;7636471;23;19913;-67
2023/01/29 09:45:16;;;;;;;;;;;19.00;51.30;;;;;;7670332;23;19912;-67
2023/01/29 09:48:17;;;;;;;;;;;19.00;51.30;;;;;;7669613;23;19911;-68
2023/01/29 09:51:28;;;;;;;;;;;19.00;51.20;;;;;;7672206;23;19936;-68
2023/01/29 09:54:35;;;;;;;;;;;19.00;51.30;;;;;;7672330;23;20437;-67
2023/01/29 09:57:54;;;;;;;;;;;19.00;51.30;;;;;;7672008;23;19904;-67
2023/01/29 10:00:55;;;;;;;;;;;19.00;51.30;;;;;;7672114;23;20375;-67
2023/01/29 10:03:58;;;;;;;;;;;19.00;51.30;;;;;;7670515;23;19904;-67
2023/01/29 10:07:10;;;;;;;;;;;19.00;51.30;;;;;;7670757;23;19911;-67
2023/01/29 10:10:21;;;;;;;;;;;19.00;51.30;;;;;;7671982;23;19908;-67
2023/01/29 10:13:29;;;;;;;;;;;19.00;51.40;;;;;;7671051;23;20334;-68
2023/01/29 10:16:42;;;;;;;;;;;19.00;51.30;;;;;;7672593;23;19908;-67
2023/01/29 10:19:51;;;;;;;;;;;19.00;51.30;;;;;;7672116;23;19943;-67
2023/01/29 10:23:05;;;;;;;;;;;19.00;51.40;;;;;;7669805;23;19970;-67
2023/01/29 10:26:10;;;;;;;;;;;19.00;51.40;;;;;;7672130;23;19987;-68
2023/01/29 10:29:15;;;;;;;;;;;19.00;51.40;;;;;;7670579;23;19999;-68
2023/01/29 10:32:20;;;;;;;;;;;19.00;51.40;;;;;;7672626;23;19924;-67
2023/01/29 10:35:23;;;;;;;;;;;19.00;51.40;;;;;;7674326;23;19904;-68
2023/01/29 10:38:26;;;;;;;;;;;19.00;51.40;;;;;;7674218;23;20276;-67
2023/01/29 10:41:27;;;;;;;;;;;19.00;51.40;;;;;;7674181;23;19912;-67
2023/01/29 10:44:30;;;;;;;;;;;19.00;51.40;;;;;;7673668;23;19911;-67
2023/01/29 10:48:09;;;;;;;;;;;19.00;51.40;;;;;;7674360;23;19904;-67
2023/01/29 10:51:25;;;;;;;;;;;19.00;51.50;;;;;;7596438;23;19970;-68
2023/01/29 10:54:25;;;;;;;;;;;19.00;51.50;;;;;;7598551;23;19909;-67
2023/01/29 10:57:45;;;;;;;;;;;19.00;51.50;;;;;;7673581;23;19943;-68
2023/01/29 11:00:45;;;;;;;;;;;19.00;51.50;;;;;;7672627;23;19914;-67
2023/01/29 11:03:53;;;;;;;;;;;19.00;51.50;;;;;;7673398;23;19912;-67
2023/01/29 11:06:54;;;;;;;;;;;19.00;51.50;;;;;;7672518;23;19954;-67
2023/01/29 11:10:10;;;;;;;;;;;19.00;51.50;;;;;;7673351;23;19908;-67
2023/01/29 11:13:13;;;;;;;;;;;19.00;51.50;;;;;;7673048;23;19908;-68
2023/01/29 11:16:14;;;;;;;;;;;19.00;51.50;;;;;;7672507;23;19904;-67
2023/01/29 11:19:15;;;;;;;;;;;19.00;51.50;;;;;;7671927;23;20335;-68
2023/01/29 11:22:20;;;;;;;;;;;19.00;51.50;;;;;;7673515;23;19944;-67
2023/01/29 11:25:21;;;;;;;;;;;19.00;51.60;;;;;;7673378;23;19911;-67
2023/01/29 11:28:54;;;;;;;;;;;19.00;51.50;;;;;;7673694;23;19905;-67
2023/01/29 11:31:56;;;;;;;;;;;19.00;51.60;;;;;;7621725;23;19916;-67
2023/01/29 11:34:57;;;;;;;;;;;19.00;51.60;;;;;;7673372;23;19911;-68
2023/01/29 11:38:15;;;;;;;;;;;19.00;51.60;;;;;;7673579;23;20444;-68
2023/01/29 11:41:21;;;;;;;;;;;19.00;51.50;;;;;;7673000;23;20090;-68
2023/01/29 11:44:35;;;;;;;;;;;19.00;52.40;;;;;;7672779;23;20326;-67
2023/01/29 11:47:35;;;;;;;;;;;19.00;52.30;;;;;;7673402;23;19908;-68
2023/01/29 11:50:36;;;;;;;;;;;19.00;51.50;;;;;;7673569;23;19951;-68
2023/01/29 11:53:38;;;;;;;;;;;19.00;51.60;;;;;;7672736;23;19911;-68
2023/01/29 11:56:41;;;;;;;;;;;19.00;51.60;;;;;;7672998;23;19936;-68
2023/01/29 11:59:47;;;;;;;;;;;19.00;51.60;;;;;;7671904;23;19915;-67
2023/01/29 12:02:52;;;;;;;;;;;19.00;51.60;;;;;;7672900;23;19909;-68
2023/01/29 12:05:56;;;;;;;;;;;19.00;51.60;;;;;;7673170;23;19978;-67
2023/01/29 12:08:58;;;;;;;;;;;19.00;51.60;;;;;;7671960;23;19935;-67
2023/01/29 12:12:16;;;;;;;;;;;19.00;51.50;;;;;;7670909;23;20287;-68
2023/01/29 12:15:18;;;;;;;;;;;19.00;51.60;;;;;;7673029;23;19908;-68
2023/01/29 12:18:30;;;;;;;;;;;19.00;51.60;;;;;;7672938;23;19905;-67
2023/01/29 12:21:52;;;;;;;;;;;19.00;51.60;;;;;;7672225;23;20228;-68
2023/01/29 12:25:02;;;;;;;;;;;19.00;51.60;;;;;;7673919;23;19908;-67
2023/01/29 12:28:07;;;;;;;;;;;19.00;51.60;;;;;;7673081;23;19904;-67
2023/01/29 12:31:28;;;;;;;;;;;19.00;51.60;;;;;;7672140;23;19912;-67
2023/01/29 12:34:43;;;;;;;;;;;19.00;51.60;;;;;;7671911;23;19927;-68
2023/01/29 12:37:43;;;;;;;;;;;19.00;51.60;;;;;;7672999;23;19904;-68
2023/01/29 12:40:54;;;;;;;;;;;19.00;51.60;;;;;;7672579;23;19912;-68
2023/01/29 12:44:18;;;;;;;;;;;19.00;51.60;;;;;;7670866;23;19911;-67
2023/01/29 12:47:21;;;;;;;;;;;19.00;51.60;;;;;;7663943;23;19908;-68
2023/01/29 12:50:42;;;;;;;;;;;19.00;51.60;;;;;;7672618;23;20335;-67
2023/01/29 12:53:46;;;;;;;;;;;19.00;51.60;;;;;;7671709;23;19904;-68
2023/01/29 12:56:49;;;;;;;;;;;19.00;51.60;;;;;;7665470;23;19918;-68
2023/01/29 12:59:57;;;;;;;;;;;19.00;51.60;;;;;;7672061;23;19912;-67
2023/01/29 13:03:16;;;;;;;;;;;19.00;51.60;;;;;;7664296;23;20399;-67
2023/01/29 13:06:20;;;;;;;;;;;19.00;51.60;;;;;;7671450;23;19908;-67
2023/01/29 13:09:24;;;;;;;;;;;19.00;51.60;;;;;;7671201;23;19945;-67
2023/01/29 13:12:25;;;;;;;;;;;19.00;51.60;;;;;;7672004;23;19904;-68
2023/01/29 13:15:34;;;;;;;;;;;19.00;52.30;;;;;;7672574;23;19912;-67
2023/01/29 13:18:41;;;;;;;;;;;19.00;51.60;;;;;;7672196;23;19979;-67
2023/01/29 13:21:43;;;;;;;;;;;19.00;51.60;;;;;;7672070;23;19909;-68
2023/01/29 13:24:44;;;;;;;;;;;19.00;51.60;;;;;;7672414;23;20351;-68
2023/01/29 13:27:46;;;;;;;;;;;19.00;51.60;;;;;;7672425;23;19904;-68
2023/01/29 13:31:06;;;;;;;;;;;19.00;51.60;;;;;;7672403;23;19911;-68
2023/01/29 13:34:28;;;;;;;;;;;19.00;51.70;;;;;;7672282;23;19909;-68
2023/01/29 13:37:29;;;;;;;;;;;19.00;51.70;;;;;;7670009;23;19912;-69
2023/01/29 13:40:31;;;;;;;;;;;19.10;51.70;;;;;;7672093;23;19943;-70
2023/01/29 13:43:34;;;;;;;;;;;19.00;51.60;;;;;;7670323;23;19904;-68
2023/01/29 13:46:38;;;;;;;;;;;19.00;51.60;;;;;;7665189;23;20322;-68
2023/01/29 13:49:40;;;;;;;;;;;19.10;51.80;;;;;;7671928;23;19904;-69
2023/01/29 13:52:55;;;;;;;;;;;19.00;51.70;;;;;;7669867;23;19940;-68
2023/01/29 13:56:15;;;;;;;;;;;19.10;51.70;;;;;;7670220;23;19951;-68
2023/01/29 13:59:35;;;;;;;;;;;19.10;51.70;;;;;;7671636;23;19904;-68
2023/01/29 14:02:35;;;;;;;;;;;19.00;51.60;;;;;;7671507;23;19912;-68
2023/01/29 14:05:36;;;;;;;;;;;19.00;51.70;;;;;;7670446;23;19963;-69
2023/01/29 14:08:38;;;;;;;;;;;19.00;51.60;;;;;;7672756;23;19904;-68
2023/01/29 14:11:46;;;;;;;;;;;19.00;51.70;;;;;;7672205;23;19986;-68
2023/01/29 14:14:47;;;;;;;;;;;19.00;51.70;;;;;;7667599;23;19984;-68
2023/01/29 14:17:55;;;;;;;;;;;19.00;51.70;;;;;;7665127;23;19908;-69
2023/01/29 14:20:57;;;;;;;;;;;19.00;52.40;;;;;;7672726;23;19918;-68
2023/01/29 14:24:16;;;;;;;;;;;19.00;51.70;;;;;;7673284;23;19911;-68
2023/01/29 14:27:19;;;;;;;;;;;19.00;51.60;;;;;;7673066;23;19908;-68
2023/01/29 14:30:21;;;;;;;;;;;19.00;51.70;;;;;;7674268;23;20221;-69
2023/01/29 14:33:33;;;;;;;;;;;19.00;51.60;;;;;;7658760;23;20283;-68
2023/01/29 14:36:41;;;;;;;;;;;19.00;51.70;;;;;;7641560;23;20221;-68
2023/01/29 14:39:43;;;;;;;;;;;19.00;51.80;;;;;;7667705;23;19912;-69
2023/01/29 14:42:56;;;;;;;;;;;19.10;51.80;;;;;;7671282;23;19983;-69
2023/01/29 14:46:16;;;;;;;;;;;19.10;51.70;;;;;;7672511;23;19904;-68
2023/01/29 14:49:37;;;;;;;;;;;19.10;51.70;;;;;;7672872;23;19927;-69
2023/01/29 14:52:41;;;;;;;;;;;19.20;51.50;;;;;;7672099;23;19908;-69
2023/01/29 14:56:01;;;;;;;;;;;19.20;51.30;;;;;;7674306;23;19911;-69
2023/01/29 14:59:14;;;;;;;;;;;19.20;51.20;;;;;;7673698;23;19935;-68
2023/01/29 15:02:25;;;;;;;;;;;19.20;51.20;;;;;;7672690;23;20174;-68
2023/01/29 15:05:28;;;;;;;;;;;19.30;51.20;;;;;;7673127;23;19991;-69
2023/01/29 15:08:30;;;;;;;;;;;19.20;51.00;;;;;;7673816;23;20358;-69
2023/01/29 15:11:36;;;;;;;;;;;19.30;51.10;;;;;;7674608;23;19915;-67
2023/01/29 15:14:45;;;;;;;;;;;19.30;51.20;;;;;;7675704;23;19950;-68
2023/01/29 15:18:04;;;;;;;;;;;19.30;51.20;;;;;;7673582;23;20213;-68
2023/01/29 15:21:18;;;;;;;;;;;19.30;51.20;;;;;;7673677;23;19912;-70
2023/01/29 15:24:18;;;;;;;;;;;19.20;51.20;;;;;;7674469;23;19904;-70
2023/01/29 15:27:19;;;;;;;;;;;19.20;51.20;;;;;;7672156;23;20342;-70
2023/01/29 15:30:21;;;;;;;;;;;19.20;51.30;;;;;;7674159;23;19904;-70
2023/01/29 15:33:22;;;;;;;;;;;19.20;51.30;;;;;;7670892;23;20344;-70
2023/01/29 15:36:24;;;;;;;;;;;19.20;51.30;;;;;;7673078;23;19911;-70
2023/01/29 15:39:26;;;;;;;;;;;19.20;51.30;;;;;;7673766;23;19908;-70
2023/01/29 15:42:28;;;;;;;;;;;19.20;51.40;;;;;;7672686;23;19912;-70
2023/01/29 15:45:30;;;;;;;;;;;19.20;51.40;;;;;;7672917;23;19912;-70
2023/01/29 15:48:34;;;;;;;;;;;19.20;51.40;;;;;;7672801;23;19958;-70
2023/01/29 15:51:34;;;;;;;;;;;19.20;51.50;;;;;;7671251;23;20205;-69
2023/01/29 15:54:35;;;;;;;;;;;19.20;51.50;;;;;;7663686;23;19984;-70
2023/01/29 15:57:39;;;;;;;;;;;19.20;51.50;;;;;;7671526;23;20003;-70
2023/01/29 16:00:46;;;;;;;;;;;19.20;51.50;;;;;;7671309;23;19911;-70
2023/01/29 16:03:50;;;;;;;;;;;19.20;51.50;;;;;;7670343;23;20312;-70
2023/01/29 16:06:51;;;;;;;;;;;19.20;51.50;;;;;;7662090;23;20547;-70
2023/01/29 16:09:52;;;;;;;;;;;19.20;51.50;;;;;;7670952;23;20031;-70
2023/01/29 16:12:53;;;;;;;;;;;19.20;52.10;;;;;;7662042;23;20279;-70
2023/01/29 16:15:54;;;;;;;;;;;19.20;51.50;;;;;;7668892;23;19906;-70
2023/01/29 16:18:54;;;;;;;;;;;19.20;51.40;;;;;;7662382;23;19991;-70
2023/01/29 16:21:58;;;;;;;;;;;19.20;51.50;;;;;;7668657;23;19912;-70
2023/01/29 16:25:05;;;;;;;;;;;19.20;51.50;;;;;;7661686;23;20685;-70
2023/01/29 16:28:06;;;;;;;;;;;19.20;51.40;;;;;;7670624;23;20295;-70
2023/01/29 16:31:06;;;;;;;;;;;19.20;51.40;;;;;;7670164;23;19923;-70
2023/01/29 16:34:23;;;;;;;;;;;19.20;51.50;;;;;;7658361;23;19905;-70
2023/01/29 16:37:26;;;;;;;;;;;19.20;51.40;;;;;;7670030;23;20324;-70
2023/01/29 16:40:32;;;;;;;;;;;19.20;51.40;;;;;;7668636;23;19909;-70
2023/01/29 16:43:33;;;;;;;;;;;19.20;51.50;;;;;;7669678;23;20354;-70
2023/01/29 16:46:37;;;;;;;;;;;19.20;51.50;;;;;;7670319;23;19904;-70
2023/01/29 16:49:37;;;;;;;;;;;19.20;51.50;;;;;;7668990;23;19908;-70
2023/01/29 16:52:39;;;;;;;;;;;19.20;51.50;;;;;;7670146;23;19935;-70
2023/01/29 16:55:40;;;;;;;;;;;19.20;51.60;;;;;;7669954;23;19908;-70
2023/01/29 16:58:41;;;;;;;;;;;19.20;51.60;;;;;;7669027;23;19920;-70
2023/01/29 17:01:41;;;;;;;;;;;19.20;51.60;;;;;;7670176;23;19916;-70
2023/01/29 17:04:44;;;;;;;;;;;19.20;51.70;;;;;;7669730;23;19905;-70
2023/01/29 17:07:45;;;;;;;;;;;19.20;51.70;;;;;;7670615;23;19983;-70
2023/01/29 17:10:46;;;;;;;;;;;19.10;51.50;;;;;;7670677;23;20003;-70
2023/01/29 17:13:46;;;;;;;;;;;19.20;51.50;;;;;;7669428;23;19908;-70
2023/01/29 17:17:06;;;;;;;;;;;19.20;51.50;;;;;;7670016;23;19963;-70
2023/01/29 17:20:14;;;;;;;;;;;19.20;51.60;;;;;;7670377;23;19909;-70
2023/01/29 17:23:14;;;;;;;;;;;19.20;51.60;;;;;;7660981;23;19908;-71
2023/01/29 17:26:15;;;;;;;;;;;19.20;51.60;;;;;;7671067;23;20312;-71
2023/01/29 17:29:17;;;;;;;;;;;19.20;51.70;;;;;;7671988;23;19905;-70
2023/01/29 17:32:18;;;;;;;;;;;19.20;51.70;;;;;;7669620;23;19990;-70
2023/01/29 17:35:19;;;;;;;;;;;19.10;51.70;;;;;;7671239;23;19908;-70
2023/01/29 17:38:19;;;;;;;;;;;19.20;51.70;;;;;;7671291;23;19940;-70
2023/01/29 17:41:23;;;;;;;;;;;19.20;51.80;;;;;;7673124;23;19940;-68
2023/01/29 17:44:27;;;;;;;;;;;19.20;51.70;;;;;;7672424;23;20424;-70
2023/01/29 17:47:28;;;;;;;;;;;19.20;51.60;;;;;;7656760;23;19908;-70
2023/01/29 17:50:30;;;;;;;;;;;19.20;51.60;;;;;;7668685;23;19975;-70
2023/01/29 17:53:31;;;;;;;;;;;19.20;51.50;;;;;;7672950;23;19957;-70
2023/01/29 17:56:31;;;;;;;;;;;19.20;51.50;;;;;;7671695;23;19908;-70
2023/01/29 17:59:32;;;;;;;;;;;19.30;51.50;;;;;;7674438;23;20302;-70
2023/01/29 18:02:33;;;;;;;;;;;19.30;51.30;;;;;;7673441;23;20015;-70
2023/01/29 18:05:34;;;;;;;;;;;19.30;51.40;;;;;;7674739;23;19911;-70
2023/01/29 18:08:36;;;;;;;;;;;19.30;51.30;;;;;;7673564;23;19939;-70
2023/01/29 18:11:36;;;;;;;;;;;19.30;51.20;;;;;;7671769;23;19908;-70
2023/01/29 18:14:37;;;;;;;;;;;19.30;51.40;;;;;;7672130;23;19994;-70
2023/01/29 18:17:38;;;;;;;;;;;19.30;51.50;;;;;;7672436;23;19908;-70
2023/01/29 18:20:39;;;;;;;;;;;19.30;51.50;;;;;;7667188;23;20331;-70